createdAt,value
2022-11-28T00:01:39.054Z,16.27
2022-11-28T00:04:07.704Z,15.07
2022-11-28T00:06:40.201Z,17.25
2022-11-28T00:09:08.506Z,15.98
2022-11-28T00:11:36.002Z,17.23
2022-11-28T00:14:03.357Z,15.38
2022-11-28T00:16:30.830Z,16.55
2022-11-28T00:19:01.203Z,14.93
2022-11-28T00:21:29.421Z,15.88
2022-11-28T00:23:57.794Z,13.55
2022-11-28T00:26:30.955Z,15.98
2022-11-28T00:29:00.371Z,15.98
2022-11-28T00:31:34.321Z,14.50
2022-11-28T00:34:02.140Z,14.50
2022-11-28T00:36:30.401Z,16.48
2022-11-28T00:38:57.724Z,16.55
2022-11-28T00:41:28.785Z,16.88
2022-11-28T00:43:57.026Z,14.33
2022-11-28T00:46:24.923Z,16.73
2022-11-28T00:48:53.188Z,13.57
2022-11-28T00:51:24.962Z,14.27
2022-11-28T00:53:55.274Z,14.55
2022-11-28T00:56:25.429Z,14.80
2022-11-28T00:58:52.940Z,17.00
2022-11-28T01:01:27.001Z,11.38
2022-11-28T01:03:56.934Z,14.30
2022-11-28T01:06:58.403Z,11.98
2022-11-28T01:09:26.009Z,13.67
2022-11-28T01:11:54.447Z,11.70
2022-11-28T01:14:23.999Z,13.63
2022-11-28T01:16:51.605Z,15.57
2022-11-28T01:19:19.943Z,19.45
2022-11-28T01:21:47.754Z,15.45
2022-11-28T01:24:15.333Z,14.13
2022-11-28T01:26:46.960Z,14.25
2022-11-28T01:29:14.925Z,15.15
2022-11-28T01:31:43.927Z,13.02
2022-11-28T01:34:11.351Z,16.08
2022-11-28T01:36:38.772Z,14.15
2022-11-28T01:39:06.523Z,15.00
2022-11-28T01:41:34.199Z,15.85
2022-11-28T01:44:04.710Z,16.70
2022-11-28T01:46:32.789Z,19.67
2022-11-28T01:49:29.808Z,17.98
2022-11-28T01:52:08.004Z,18.00
2022-11-28T01:54:41.990Z,16.08
2022-11-28T01:57:15.316Z,15.68
2022-11-28T01:59:49.088Z,16.27
2022-11-28T02:02:41.789Z,14.40
2022-11-28T02:05:09.419Z,14.07
2022-11-28T02:07:38.005Z,13.85
2022-11-28T02:10:09.003Z,13.43
2022-11-28T02:12:52.483Z,12.77
2022-11-28T02:15:37.622Z,10.88
2022-11-28T02:18:23.362Z,11.82
2022-11-28T02:21:06.167Z,11.82
2022-11-28T02:24:19.896Z,10.20
2022-11-28T02:26:50.116Z,11.02
2022-11-28T02:29:46.937Z,11.27
2022-11-28T02:32:40.644Z,11.27
2022-11-28T02:35:20.260Z,14.32
2022-11-28T02:38:03.177Z,11.57
2022-11-28T02:40:53.981Z,12.65
2022-11-28T02:43:21.270Z,13.52
2022-11-28T02:46:14.566Z,14.63
2022-11-28T02:49:00.002Z,10.60
2022-11-28T02:51:39.898Z,12.52
2022-11-28T02:54:12.229Z,13.10
2022-11-28T02:56:46.853Z,11.93
2022-11-28T02:59:40.638Z,10.85
2022-11-28T03:02:23.581Z,11.52
2022-11-28T03:05:20.734Z,11.18
2022-11-28T03:07:51.087Z,11.05
2022-11-28T03:10:37.857Z,12.18
2022-11-28T03:13:14.047Z,12.10
2022-11-28T03:15:59.705Z,13.27
2022-11-28T03:18:34.497Z,10.85
2022-11-28T03:21:22.620Z,10.27
2022-11-28T03:24:12.018Z,10.27
2022-11-28T03:26:56.833Z,14.15
2022-11-28T03:29:52.497Z,11.70
2022-11-28T03:32:29.682Z,14.93
2022-11-28T03:35:02.781Z,12.90
2022-11-28T03:37:35.675Z,13.13
2022-11-28T03:40:08.680Z,13.27
2022-11-28T03:42:42.607Z,11.70
2022-11-28T03:45:15.367Z,9.63
2022-11-28T03:47:46.334Z,13.32
2022-11-28T03:50:20.101Z,11.37
2022-11-28T03:52:55.997Z,14.07
2022-11-28T03:55:30.932Z,13.38
2022-11-28T03:58:06.140Z,12.60
2022-11-28T04:00:38.092Z,10.18
2022-11-28T04:05:53.972Z,10.07
2022-11-28T04:08:32.352Z,10.07
2022-11-28T04:11:17.718Z,9.23
2022-11-28T04:13:51.858Z,8.07
2022-11-28T04:16:24.918Z,8.52
2022-11-28T04:19:01.610Z,12.05
2022-11-28T04:21:32.421Z,8.25
2022-11-28T04:24:05.095Z,8.90
2022-11-28T04:26:36.461Z,9.05
2022-11-28T04:29:08.058Z,6.65
2022-11-28T04:31:37.936Z,9.27
2022-11-28T04:34:09.950Z,8.45
2022-11-28T04:39:12.925Z,11.48
2022-11-28T04:42:14.570Z,10.52
2022-11-28T04:44:52.215Z,9.73
2022-11-28T04:47:19.711Z,9.15
2022-11-28T04:49:47.163Z,9.35
2022-11-28T04:53:09.447Z,9.32
2022-11-28T04:55:48.963Z,11.15
2022-11-28T04:58:22.446Z,9.77
2022-11-28T05:00:53.690Z,9.77
2022-11-28T05:03:26.542Z,10.32
2022-11-28T05:05:54.151Z,11.18
2022-11-28T05:08:21.596Z,11.45
2022-11-28T05:10:49.405Z,10.57
2022-11-28T05:13:17.238Z,12.98
2022-11-28T05:15:44.665Z,10.02
2022-11-28T05:18:12.064Z,11.80
2022-11-28T05:20:40.341Z,11.55
2022-11-28T05:23:10.290Z,11.20
2022-11-28T05:25:39.976Z,10.90
2022-11-28T05:28:08.729Z,10.43
2022-11-28T05:30:36.067Z,11.65
2022-11-28T05:33:03.748Z,8.90
2022-11-28T05:35:31.077Z,9.27
2022-11-28T05:37:58.408Z,10.90
2022-11-28T05:40:25.761Z,10.90
2022-11-28T05:42:53.240Z,10.25
2022-11-28T05:45:20.608Z,18.05
2022-11-28T05:47:50.957Z,11.07
2022-11-28T05:50:18.277Z,9.35
2022-11-28T05:52:45.637Z,11.38
2022-11-28T05:55:13.072Z,12.25
2022-11-28T05:57:43.105Z,10.40
2022-11-28T06:00:11.092Z,11.85
2022-11-28T06:02:41.971Z,11.40
2022-11-28T06:05:34.621Z,12.43
2022-11-28T06:07:56.863Z,11.27
2022-11-28T06:10:24.467Z,10.90
2022-11-28T06:12:52.241Z,11.35
2022-11-28T06:15:19.669Z,10.80
2022-11-28T06:17:47.027Z,12.80
2022-11-28T06:20:14.514Z,12.35
2022-11-28T06:22:41.849Z,10.98
2022-11-28T06:25:09.178Z,10.75
2022-11-28T06:27:36.549Z,14.23
2022-11-28T06:30:05.439Z,13.02
2022-11-28T06:32:32.793Z,11.10
2022-11-28T06:35:00.234Z,11.10
2022-11-28T06:37:28.239Z,14.90
2022-11-28T06:39:55.652Z,13.43
2022-11-28T06:42:23.066Z,10.07
2022-11-28T06:44:50.390Z,11.10
2022-11-28T06:47:17.775Z,12.48
2022-11-28T06:49:45.407Z,9.57
2022-11-28T06:52:12.950Z,13.77
2022-11-28T06:54:40.258Z,10.57
2022-11-28T06:57:07.640Z,8.55
2022-11-28T06:59:35.002Z,10.43
2022-11-28T07:02:07.480Z,10.85
2022-11-28T07:04:35.620Z,10.45
2022-11-28T07:07:03.423Z,9.38
2022-11-28T07:09:30.833Z,9.23
2022-11-28T07:11:58.171Z,11.75
2022-11-28T07:14:25.655Z,9.77
2022-11-28T07:16:53.584Z,9.55
2022-11-28T07:19:23.072Z,14.02
2022-11-28T07:21:50.953Z,10.38
2022-11-28T07:24:18.896Z,10.10
2022-11-28T07:26:46.966Z,17.67
2022-11-28T07:29:16.798Z,15.65
2022-11-28T07:31:45.301Z,12.77
2022-11-28T07:34:12.806Z,14.95
2022-11-28T07:36:40.185Z,12.05
2022-11-28T07:39:08.865Z,12.25
2022-11-28T07:41:36.323Z,15.23
2022-11-28T07:44:05.069Z,10.18
2022-11-28T07:46:33.361Z,8.45
2022-11-28T07:49:01.833Z,10.30
2022-11-28T07:51:32.830Z,14.32
2022-11-28T07:54:01.179Z,12.93
2022-11-28T07:57:04.096Z,10.65
2022-11-28T07:59:18.970Z,12.68
2022-11-28T08:01:46.477Z,14.10
2022-11-28T08:04:13.944Z,13.57
2022-11-28T08:06:43.384Z,10.55
2022-11-28T08:09:17.149Z,15.00
2022-11-28T08:11:44.590Z,9.27
2022-11-28T08:14:14.876Z,11.05
2022-11-28T08:16:45.140Z,12.15
2022-11-28T08:19:13.204Z,15.95
2022-11-28T08:21:40.915Z,14.82
2022-11-28T08:24:09.075Z,10.70
2022-11-28T08:26:37.435Z,11.43
2022-11-28T08:29:05.912Z,11.80
2022-11-28T08:31:38.308Z,12.55
2022-11-28T08:34:09.376Z,11.80
2022-11-28T08:36:37.426Z,12.40
2022-11-28T08:41:57.314Z,13.68
2022-11-28T08:44:26.274Z,10.90
2022-11-28T08:46:54.061Z,16.25
2022-11-28T08:49:21.399Z,15.35
2022-11-28T08:51:48.959Z,13.25
2022-11-28T08:54:16.428Z,9.82
2022-11-28T08:56:45.449Z,12.30
2022-11-28T08:59:14.899Z,11.40
2022-11-28T09:01:42.372Z,12.68
2022-11-28T09:04:09.863Z,10.90
2022-11-28T09:06:39.644Z,11.90
2022-11-28T09:09:07.176Z,14.65
2022-11-28T09:11:35.198Z,13.60
2022-11-28T09:14:04.682Z,16.42
2022-11-28T09:16:33.004Z,11.95
2022-11-28T09:19:00.432Z,22.63
2022-11-28T09:21:28.901Z,11.32
2022-11-28T09:23:58.985Z,13.45
2022-11-28T09:26:26.753Z,34.58
2022-11-28T09:28:55.665Z,22.05
2022-11-28T09:31:23.434Z,16.75
2022-11-28T09:33:54.294Z,16.17
2022-11-28T09:36:24.995Z,15.77
2022-11-28T09:38:52.443Z,21.85
2022-11-28T09:41:37.942Z,19.17
2022-11-28T09:44:27.009Z,15.20
2022-11-28T09:46:58.158Z,12.68
2022-11-28T09:49:40.600Z,11.50
2022-11-28T09:52:08.239Z,13.45
2022-11-28T09:54:48.512Z,20.30
2022-11-28T09:57:23.477Z,15.07
2022-11-28T09:59:51.651Z,15.20
2022-11-28T10:02:32.489Z,16.42
2022-11-28T10:05:10.957Z,17.42
2022-11-28T10:07:56.825Z,18.67
2022-11-28T10:10:36.401Z,19.17
2022-11-28T10:13:12.331Z,15.95
2022-11-28T10:16:19.587Z,22.30
2022-11-28T10:18:52.740Z,17.30
2022-11-28T10:21:59.286Z,16.00
2022-11-28T10:24:54.006Z,15.43
2022-11-28T10:27:31.306Z,18.30
2022-11-28T10:30:04.568Z,16.42
2022-11-28T10:32:37.965Z,15.52
2022-11-28T10:35:33.946Z,18.50
2022-11-28T10:38:01.470Z,19.58
2022-11-28T10:40:39.511Z,14.45
2022-11-28T10:43:25.161Z,18.77
2022-11-28T10:45:59.919Z,19.90
2022-11-28T10:49:01.120Z,21.75
2022-11-28T10:51:48.165Z,33.30
2022-11-28T10:54:18.227Z,26.95
2022-11-28T10:57:01.324Z,23.98
2022-11-28T10:59:33.629Z,19.60
2022-11-28T11:02:18.304Z,24.17
2022-11-28T11:04:48.710Z,26.02
2022-11-28T11:07:30.969Z,26.00
2022-11-28T11:10:51.050Z,21.38
2022-11-28T11:13:28.626Z,17.45
2022-11-28T11:16:02.728Z,17.30
2022-11-28T11:18:34.535Z,19.33
2022-11-28T11:21:17.003Z,22.13
2022-11-28T11:23:45.801Z,18.90
2022-11-28T11:26:29.868Z,18.85
2022-11-28T11:28:57.529Z,26.42
2022-11-28T11:31:33.609Z,21.00
2022-11-28T11:34:16.506Z,22.83
2022-11-28T11:36:44.372Z,19.60
2022-11-28T11:39:11.960Z,21.10
2022-11-28T11:41:44.943Z,18.48
2022-11-28T11:44:16.514Z,17.73
2022-11-28T11:46:57.362Z,21.25
2022-11-28T11:49:41.701Z,19.30
2022-11-28T11:52:16.608Z,20.25
2022-11-28T11:55:12.297Z,18.92
2022-11-28T11:57:44.801Z,25.27
2022-11-28T12:00:20.838Z,21.10
2022-11-28T12:02:58.216Z,23.05
2022-11-28T12:06:13.338Z,22.05
2022-11-28T12:08:49.279Z,23.70
2022-11-28T12:11:31.529Z,21.02
2022-11-28T12:20:26.221Z,25.17
2022-11-28T12:22:59.413Z,26.25
2022-11-28T12:25:46.785Z,21.83
2022-11-28T12:28:20.236Z,20.70
2022-11-28T12:31:03.075Z,21.55
2022-11-28T12:33:48.660Z,26.58
2022-11-28T12:36:35.160Z,26.77
2022-11-28T12:39:50.812Z,24.30
2022-11-28T12:42:48.496Z,20.05
2022-11-28T12:45:21.791Z,24.42
2022-11-28T12:48:13.992Z,24.13
2022-11-28T12:51:09.565Z,19.60
2022-11-28T12:53:36.867Z,18.92
2022-11-28T12:56:42.314Z,20.75
2022-11-28T12:59:20.338Z,20.77
2022-11-28T13:02:19.288Z,17.20
2022-11-28T13:04:58.229Z,21.77
2022-11-28T13:07:25.551Z,17.67
2022-11-28T13:10:02.638Z,21.13
2022-11-28T13:12:56.130Z,24.10
2022-11-28T13:15:50.929Z,20.77
2022-11-28T13:18:28.852Z,20.48
2022-11-28T13:21:12.485Z,20.80
2022-11-28T13:24:10.969Z,20.38
2022-11-28T13:26:52.192Z,20.83
2022-11-28T13:29:40.152Z,19.33
2022-11-28T13:32:28.931Z,22.77
2022-11-28T13:34:56.657Z,23.70
2022-11-28T13:40:59.705Z,22.27
2022-11-28T13:43:46.389Z,23.67
2022-11-28T13:46:14.548Z,25.02
2022-11-28T13:51:33.786Z,21.77
2022-11-28T13:54:19.941Z,20.13
2022-11-28T13:57:08.055Z,24.60
2022-11-28T13:59:36.750Z,17.67
2022-11-28T14:02:18.233Z,19.60
2022-11-28T14:04:48.206Z,18.55
2022-11-28T14:07:31.824Z,21.40
2022-11-28T14:10:18.473Z,21.77
2022-11-28T14:12:51.593Z,16.15
2022-11-28T14:15:21.952Z,18.67
2022-11-28T14:18:01.929Z,17.25
2022-11-28T14:20:39.111Z,14.38
2022-11-28T14:23:17.376Z,16.95
2022-11-28T14:25:50.529Z,17.95
2022-11-28T14:28:26.664Z,19.52
2022-11-28T14:31:21.541Z,17.20
2022-11-28T14:33:49.190Z,16.77
2022-11-28T14:36:43.749Z,13.95
2022-11-28T14:39:19.626Z,14.40
2022-11-28T14:42:05.485Z,15.05
2022-11-28T14:44:54.717Z,14.57
2022-11-28T14:47:42.966Z,15.45
2022-11-28T14:50:10.593Z,14.63
2022-11-28T14:52:48.654Z,20.05
2022-11-28T14:55:22.092Z,16.80
2022-11-28T14:58:04.528Z,17.55
2022-11-28T15:00:44.140Z,16.67
2022-11-28T15:03:39.055Z,19.25
2022-11-28T15:06:38.258Z,17.60
2022-11-28T15:09:25.879Z,18.98
2022-11-28T15:12:02.480Z,22.48
2022-11-28T15:14:33.282Z,17.02
2022-11-28T15:17:05.567Z,20.63
2022-11-28T15:19:48.266Z,14.88
2022-11-28T15:22:39.810Z,18.20
2022-11-28T15:25:27.167Z,23.90
2022-11-28T15:27:55.492Z,17.08
2022-11-28T15:30:26.923Z,23.55
2022-11-28T15:33:05.680Z,18.73
2022-11-28T15:35:33.909Z,20.30
2022-11-28T15:38:01.863Z,21.30
2022-11-28T15:40:32.491Z,32.03
2022-11-28T15:43:06.645Z,24.63
2022-11-28T15:45:37.007Z,17.88
2022-11-28T15:48:06.598Z,25.17
2022-11-28T15:50:34.513Z,26.20
2022-11-28T15:53:15.461Z,24.20
2022-11-28T15:55:44.286Z,19.70
2022-11-28T15:58:17.799Z,27.35
2022-11-28T16:00:53.370Z,24.05
2022-11-28T16:03:24.957Z,18.75
2022-11-28T16:05:54.745Z,20.40
2022-11-28T16:08:50.731Z,25.90
2022-11-28T16:11:21.086Z,19.15
2022-11-28T16:13:49.228Z,20.65
2022-11-28T16:16:21.270Z,25.83
2022-11-28T16:18:57.314Z,27.77
2022-11-28T16:22:04.084Z,20.90
2022-11-28T16:24:42.672Z,27.23
2022-11-28T16:27:26.928Z,20.15
2022-11-28T16:29:54.354Z,24.23
2022-11-28T16:32:36.516Z,25.33
2022-11-28T16:37:32.957Z,23.70
2022-11-28T16:40:14.645Z,20.05
2022-11-28T16:42:42.272Z,18.83
2022-11-28T16:45:25.260Z,31.02
2022-11-28T16:48:14.881Z,27.83
2022-11-28T16:51:02.015Z,24.00
2022-11-28T16:53:41.676Z,19.80
2022-11-28T16:56:30.398Z,18.58
2022-11-28T16:59:24.521Z,22.02
2022-11-28T17:01:53.539Z,22.90
2022-11-28T17:04:25.138Z,22.45
2022-11-28T17:06:54.791Z,20.48
2022-11-28T17:09:22.193Z,25.42
2022-11-28T17:12:05.074Z,22.25
2022-11-28T17:14:32.742Z,21.48
2022-11-28T17:17:02.968Z,21.77
2022-11-28T17:19:30.465Z,21.42
2022-11-28T17:21:59.582Z,22.92
2022-11-28T17:24:33.174Z,20.73
2022-11-28T17:27:01.346Z,17.80
2022-11-28T17:29:29.271Z,20.17
2022-11-28T17:31:59.066Z,23.20
2022-11-28T17:34:31.438Z,17.88
2022-11-28T17:37:00.391Z,24.83
2022-11-28T17:39:29.107Z,20.50
2022-11-28T17:41:57.750Z,20.65
2022-11-28T17:44:28.032Z,19.05
2022-11-28T17:46:57.219Z,22.42
2022-11-28T17:49:25.178Z,19.83
2022-11-28T17:51:54.781Z,20.92
2022-11-28T17:54:24.417Z,20.52
2022-11-28T17:57:12.318Z,20.33
2022-11-28T17:59:39.659Z,22.13
2022-11-28T18:02:07.132Z,19.02
2022-11-28T18:04:37.444Z,24.38
2022-11-28T18:07:04.916Z,22.27
2022-11-28T18:09:32.648Z,20.05
2022-11-28T18:12:02.902Z,24.25
2022-11-28T18:14:36.636Z,20.25
2022-11-28T18:17:08.158Z,22.92
2022-11-28T18:19:35.599Z,28.30
2022-11-28T18:22:02.996Z,20.35
2022-11-28T18:24:30.396Z,27.95
2022-11-28T18:26:57.730Z,25.92
2022-11-28T18:29:25.400Z,20.20
2022-11-28T18:31:53.865Z,24.50
2022-11-28T18:34:21.247Z,19.08
2022-11-28T18:36:52.121Z,21.00
2022-11-28T18:39:19.936Z,22.17
2022-11-28T18:41:50.260Z,21.58
2022-11-28T18:44:19.018Z,32.90
2022-11-28T18:46:46.339Z,21.40
2022-11-28T18:49:15.217Z,20.88
2022-11-28T18:51:42.805Z,27.08
2022-11-28T18:54:10.230Z,20.95
2022-11-28T18:56:38.143Z,28.42
2022-11-28T18:59:06.039Z,23.77
2022-11-28T19:01:34.879Z,26.88
2022-11-28T19:04:11.154Z,28.92
2022-11-28T19:06:40.474Z,26.73
2022-11-28T19:09:11.520Z,25.15
2022-11-28T19:11:40.929Z,21.75
2022-11-28T19:14:08.849Z,26.45
2022-11-28T19:16:37.807Z,28.90
2022-11-28T19:19:06.126Z,33.83
2022-11-28T19:21:35.641Z,33.60
2022-11-28T19:24:03.237Z,34.65
2022-11-28T19:26:31.512Z,28.65
2022-11-28T19:29:02.101Z,38.88
2022-11-28T19:31:31.899Z,28.85
2022-11-28T19:34:05.051Z,31.17
2022-11-28T19:36:39.300Z,29.33
2022-11-28T19:39:17.069Z,32.60
2022-11-28T19:41:45.296Z,26.35
2022-11-28T19:44:14.486Z,25.67
2022-11-28T19:46:42.201Z,24.95
2022-11-28T19:49:16.899Z,30.55
2022-11-28T19:51:44.700Z,35.00
2022-11-28T19:54:12.304Z,29.42
2022-11-28T19:56:39.927Z,31.95
2022-11-28T19:59:09.396Z,29.80
2022-11-28T20:01:38.818Z,26.88
2022-11-28T20:04:06.313Z,29.33
2022-11-28T20:06:34.553Z,23.15
2022-11-28T20:09:08.993Z,28.42
2022-11-28T20:11:42.962Z,29.42
2022-11-28T20:14:16.854Z,35.65
2022-11-28T20:16:44.973Z,35.08
2022-11-28T20:19:14.913Z,34.42
2022-11-28T20:24:12.734Z,31.58
2022-11-28T20:26:42.717Z,37.35
2022-11-28T20:29:15.863Z,31.10
2022-11-28T20:31:47.645Z,28.70
2022-11-28T20:34:18.918Z,33.50
2022-11-28T20:36:53.744Z,25.17
2022-11-28T20:41:48.704Z,28.20
2022-11-28T20:44:17.643Z,32.33
2022-11-28T20:46:46.387Z,29.13
2022-11-28T20:49:15.276Z,31.83
2022-11-28T20:51:42.912Z,27.38
2022-11-28T20:54:12.317Z,30.60
2022-11-28T20:57:05.494Z,26.90
2022-11-28T20:59:27.512Z,25.45
2022-11-28T21:01:54.953Z,27.88
2022-11-28T21:04:22.348Z,30.88
2022-11-28T21:06:49.781Z,30.85
2022-11-28T21:09:20.093Z,30.13
2022-11-28T21:11:58.011Z,34.45
2022-11-28T21:14:29.866Z,30.73
2022-11-28T21:16:58.210Z,33.13
2022-11-28T21:19:25.669Z,33.42
2022-11-28T21:21:53.285Z,34.40
2022-11-28T21:24:23.321Z,30.67
2022-11-28T21:26:54.068Z,30.77
2022-11-28T21:29:23.437Z,27.80
2022-11-28T21:31:51.041Z,32.08
2022-11-28T21:34:19.552Z,32.53
2022-11-28T21:36:47.263Z,27.58
2022-11-28T21:39:20.122Z,34.45
2022-11-28T21:41:48.099Z,35.85
2022-11-28T21:44:15.500Z,35.53
2022-11-28T21:46:43.225Z,38.65
2022-11-28T21:49:10.633Z,29.35
2022-11-28T21:51:40.703Z,32.92
2022-11-28T21:54:12.021Z,34.90
2022-11-28T21:56:39.524Z,33.10
2022-11-28T21:59:06.988Z,36.22
2022-11-28T22:01:34.804Z,31.73
2022-11-28T22:04:03.251Z,31.67
2022-11-28T22:06:32.162Z,27.02
2022-11-28T22:09:08.380Z,29.98
2022-11-28T22:11:38.153Z,26.92
2022-11-28T22:14:05.794Z,27.65
2022-11-28T22:16:33.477Z,24.08
2022-11-28T22:19:01.209Z,25.23
2022-11-28T22:21:51.884Z,25.35
2022-11-28T22:24:16.257Z,31.60
2022-11-28T22:26:44.519Z,23.65
2022-11-28T22:29:13.368Z,25.50
2022-11-28T22:31:43.785Z,32.10
2022-11-28T22:34:12.265Z,25.52
2022-11-28T22:36:39.750Z,31.58
2022-11-28T22:39:13.066Z,31.58
2022-11-28T22:44:10.636Z,36.30
2022-11-28T22:46:38.197Z,38.67
2022-11-28T22:49:07.038Z,40.03
2022-11-28T22:51:35.834Z,29.77
2022-11-28T22:54:04.102Z,33.42
2022-11-28T22:56:33.677Z,30.95
2022-11-28T22:59:01.637Z,29.35
2022-11-28T23:01:30.430Z,31.73
2022-11-28T23:03:58.888Z,28.75
2022-11-28T23:06:32.384Z,33.03
2022-11-28T23:09:02.282Z,29.85
2022-11-28T23:11:32.946Z,30.75
2022-11-28T23:14:02.218Z,30.15
2022-11-28T23:16:40.593Z,27.52
2022-11-28T23:19:12.874Z,27.98
2022-11-28T23:24:14.158Z,32.10
2022-11-28T23:26:42.086Z,37.15
2022-11-28T23:29:11.330Z,30.70
2022-11-28T23:31:40.940Z,29.30
2022-11-28T23:34:10.131Z,28.52
2022-11-28T23:36:42.914Z,30.42
2022-11-28T23:41:43.480Z,29.77
2022-11-28T23:44:15.173Z,28.60
2022-11-28T23:46:43.531Z,27.50
2022-11-28T23:49:11.930Z,28.73
2022-11-28T23:51:42.646Z,28.02
2022-11-28T23:54:11.348Z,27.50
2022-11-28T23:56:40.383Z,26.20
2022-11-28T23:59:10.067Z,27.08
